sensor_id;sensor_type;location;lat;lon;timestamp;P1;durP1;ratioP1;P2;durP2;ratioP2
59830;SDS011;45711;50.108;13.712;2022-07-23T00:01:19;12.25;;;8.00;;
59830;SDS011;45711;50.108;13.712;2022-07-23T00:03:45;14.80;;;7.90;;
59830;SDS011;45711;50.108;13.712;2022-07-23T00:06:10;9.90;;;7.78;;
59830;SDS011;45711;50.108;13.712;2022-07-23T00:08:36;16.60;;;8.48;;
59830;SDS011;45711;50.108;13.712;2022-07-23T00:11:03;12.85;;;8.65;;
59830;SDS011;45711;50.108;13.712;2022-07-23T00:13:29;17.95;;;8.60;;
59830;SDS011;45711;50.108;13.712;2022-07-23T00:15:54;11.65;;;8.07;;
59830;SDS011;45711;50.108;13.712;2022-07-23T00:18:20;12.43;;;8.57;;
59830;SDS011;45711;50.108;13.712;2022-07-23T00:20:46;13.30;;;8.02;;
59830;SDS011;45711;50.108;13.712;2022-07-23T00:23:11;11.70;;;8.52;;
59830;SDS011;45711;50.108;13.712;2022-07-23T00:25:37;11.63;;;8.32;;
59830;SDS011;45711;50.108;13.712;2022-07-23T00:28:04;21.80;;;8.55;;
59830;SDS011;45711;50.108;13.712;2022-07-23T00:30:30;12.50;;;7.97;;
59830;SDS011;45711;50.108;13.712;2022-07-23T00:32:57;12.05;;;7.78;;
59830;SDS011;45711;50.108;13.712;2022-07-23T00:35:24;13.93;;;8.25;;
59830;SDS011;45711;50.108;13.712;2022-07-23T00:37:51;12.35;;;8.25;;
59830;SDS011;45711;50.108;13.712;2022-07-23T00:40:16;18.98;;;8.50;;
59830;SDS011;45711;50.108;13.712;2022-07-23T00:42:42;15.63;;;8.27;;
59830;SDS011;45711;50.108;13.712;2022-07-23T00:45:10;13.25;;;7.72;;
59830;SDS011;45711;50.108;13.712;2022-07-23T00:47:35;11.82;;;7.88;;
59830;SDS011;45711;50.108;13.712;2022-07-23T00:50:01;12.35;;;7.85;;
59830;SDS011;45711;50.108;13.712;2022-07-23T00:52:28;11.27;;;8.02;;
59830;SDS011;45711;50.108;13.712;2022-07-23T00:54:54;22.58;;;8.57;;
59830;SDS011;45711;50.108;13.712;2022-07-23T00:57:20;12.02;;;7.60;;
59830;SDS011;45711;50.108;13.712;2022-07-23T00:59:46;13.80;;;7.65;;
59830;SDS011;45711;50.108;13.712;2022-07-23T01:02:13;16.52;;;8.18;;
59830;SDS011;45711;50.108;13.712;2022-07-23T01:04:38;11.25;;;7.78;;
59830;SDS011;45711;50.108;13.712;2022-07-23T01:07:04;11.75;;;8.40;;
59830;SDS011;45711;50.108;13.712;2022-07-23T01:09:30;11.80;;;7.65;;
59830;SDS011;45711;50.108;13.712;2022-07-23T01:11:56;19.85;;;8.50;;
59830;SDS011;45711;50.108;13.712;2022-07-23T01:14:22;13.10;;;7.47;;
59830;SDS011;45711;50.108;13.712;2022-07-23T01:16:48;8.93;;;7.55;;
59830;SDS011;45711;50.108;13.712;2022-07-23T01:19:15;14.75;;;8.00;;
59830;SDS011;45711;50.108;13.712;2022-07-23T01:21:42;10.43;;;7.38;;
59830;SDS011;45711;50.108;13.712;2022-07-23T01:24:11;13.23;;;7.95;;
59830;SDS011;45711;50.108;13.712;2022-07-23T01:26:37;15.32;;;7.53;;
59830;SDS011;45711;50.108;13.712;2022-07-23T01:29:03;13.95;;;8.77;;
59830;SDS011;45711;50.108;13.712;2022-07-23T01:31:30;9.68;;;7.90;;
59830;SDS011;45711;50.108;13.712;2022-07-23T01:33:56;15.70;;;8.75;;
59830;SDS011;45711;50.108;13.712;2022-07-23T01:36:22;14.27;;;8.18;;
59830;SDS011;45711;50.108;13.712;2022-07-23T01:38:48;8.80;;;7.80;;
59830;SDS011;45711;50.108;13.712;2022-07-23T01:41:15;9.45;;;7.60;;
59830;SDS011;45711;50.108;13.712;2022-07-23T01:43:40;15.13;;;8.05;;
59830;SDS011;45711;50.108;13.712;2022-07-23T01:46:06;27.65;;;8.40;;
59830;SDS011;45711;50.108;13.712;2022-07-23T01:48:31;11.98;;;8.00;;
59830;SDS011;45711;50.108;13.712;2022-07-23T01:50:57;12.15;;;7.85;;
59830;SDS011;45711;50.108;13.712;2022-07-23T01:53:23;18.27;;;8.18;;
59830;SDS011;45711;50.108;13.712;2022-07-23T01:55:48;18.50;;;8.38;;
59830;SDS011;45711;50.108;13.712;2022-07-23T01:58:15;16.35;;;8.13;;
59830;SDS011;45711;50.108;13.712;2022-07-23T02:00:41;13.80;;;7.80;;
59830;SDS011;45711;50.108;13.712;2022-07-23T02:03:07;15.05;;;8.15;;
59830;SDS011;45711;50.108;13.712;2022-07-23T02:05:32;15.45;;;7.55;;
59830;SDS011;45711;50.108;13.712;2022-07-23T02:07:58;12.60;;;7.95;;
59830;SDS011;45711;50.108;13.712;2022-07-23T02:10:24;16.17;;;8.18;;
59830;SDS011;45711;50.108;13.712;2022-07-23T02:12:50;16.42;;;8.50;;
59830;SDS011;45711;50.108;13.712;2022-07-23T02:15:17;11.40;;;8.20;;
59830;SDS011;45711;50.108;13.712;2022-07-23T02:17:43;16.77;;;8.45;;
59830;SDS011;45711;50.108;13.712;2022-07-23T02:20:09;13.95;;;8.38;;
59830;SDS011;45711;50.108;13.712;2022-07-23T02:22:35;12.10;;;8.43;;
59830;SDS011;45711;50.108;13.712;2022-07-23T02:25:01;16.58;;;8.13;;
59830;SDS011;45711;50.108;13.712;2022-07-23T02:27:27;15.13;;;8.93;;
59830;SDS011;45711;50.108;13.712;2022-07-23T02:29:53;17.02;;;8.90;;
59830;SDS011;45711;50.108;13.712;2022-07-23T02:32:20;16.63;;;8.27;;
59830;SDS011;45711;50.108;13.712;2022-07-23T02:34:48;10.65;;;8.25;;
59830;SDS011;45711;50.108;13.712;2022-07-23T02:37:13;12.85;;;8.55;;
59830;SDS011;45711;50.108;13.712;2022-07-23T02:39:39;11.55;;;8.60;;
59830;SDS011;45711;50.108;13.712;2022-07-23T02:42:05;12.48;;;8.30;;
59830;SDS011;45711;50.108;13.712;2022-07-23T02:44:30;14.48;;;8.45;;
59830;SDS011;45711;50.108;13.712;2022-07-23T02:46:56;13.13;;;8.00;;
59830;SDS011;45711;50.108;13.712;2022-07-23T02:49:23;10.07;;;8.35;;
59830;SDS011;45711;50.108;13.712;2022-07-23T02:51:49;10.68;;;7.90;;
59830;SDS011;45711;50.108;13.712;2022-07-23T02:54:14;12.77;;;8.25;;
59830;SDS011;45711;50.108;13.712;2022-07-23T02:56:40;11.93;;;7.95;;
59830;SDS011;45711;50.108;13.712;2022-07-23T02:59:05;19.73;;;7.97;;
59830;SDS011;45711;50.108;13.712;2022-07-23T03:01:31;12.75;;;8.48;;
59830;SDS011;45711;50.108;13.712;2022-07-23T03:03:57;11.27;;;7.88;;
59830;SDS011;45711;50.108;13.712;2022-07-23T03:06:23;16.90;;;8.27;;
59830;SDS011;45711;50.108;13.712;2022-07-23T03:08:49;15.02;;;9.20;;
59830;SDS011;45711;50.108;13.712;2022-07-23T03:11:14;15.32;;;8.75;;
59830;SDS011;45711;50.108;13.712;2022-07-23T03:13:40;13.43;;;9.27;;
59830;SDS011;45711;50.108;13.712;2022-07-23T03:16:06;10.85;;;8.57;;
59830;SDS011;45711;50.108;13.712;2022-07-23T03:18:32;13.20;;;9.05;;
59830;SDS011;45711;50.108;13.712;2022-07-23T03:20:58;16.08;;;9.13;;
59830;SDS011;45711;50.108;13.712;2022-07-23T03:23:25;13.85;;;9.20;;
59830;SDS011;45711;50.108;13.712;2022-07-23T03:25:50;16.60;;;9.10;;
59830;SDS011;45711;50.108;13.712;2022-07-23T03:28:16;18.42;;;9.38;;
59830;SDS011;45711;50.108;13.712;2022-07-23T03:30:42;25.58;;;9.63;;
59830;SDS011;45711;50.108;13.712;2022-07-23T03:33:08;14.18;;;9.70;;
59830;SDS011;45711;50.108;13.712;2022-07-23T03:35:33;14.88;;;9.93;;
59830;SDS011;45711;50.108;13.712;2022-07-23T03:37:59;18.08;;;9.77;;
59830;SDS011;45711;50.108;13.712;2022-07-23T03:40:26;19.95;;;11.05;;
59830;SDS011;45711;50.108;13.712;2022-07-23T03:42:52;15.57;;;10.10;;
59830;SDS011;45711;50.108;13.712;2022-07-23T03:45:17;18.73;;;11.27;;
59830;SDS011;45711;50.108;13.712;2022-07-23T03:47:43;20.67;;;10.20;;
59830;SDS011;45711;50.108;13.712;2022-07-23T03:50:09;14.93;;;10.48;;
59830;SDS011;45711;50.108;13.712;2022-07-23T03:52:34;16.83;;;10.45;;
59830;SDS011;45711;50.108;13.712;2022-07-23T03:55:00;21.77;;;10.98;;
59830;SDS011;45711;50.108;13.712;2022-07-23T03:57:28;19.45;;;11.20;;
59830;SDS011;45711;50.108;13.712;2022-07-23T03:59:54;19.48;;;10.68;;
59830;SDS011;45711;50.108;13.712;2022-07-23T04:02:19;20.38;;;11.02;;
59830;SDS011;45711;50.108;13.712;2022-07-23T04:04:45;17.17;;;11.65;;
59830;SDS011;45711;50.108;13.712;2022-07-23T04:07:11;14.63;;;11.27;;
59830;SDS011;45711;50.108;13.712;2022-07-23T04:09:37;18.38;;;11.70;;
59830;SDS011;45711;50.108;13.712;2022-07-23T04:12:03;19.23;;;11.40;;
59830;SDS011;45711;50.108;13.712;2022-07-23T04:14:30;18.58;;;11.82;;
59830;SDS011;45711;50.108;13.712;2022-07-23T04:16:56;20.20;;;10.77;;
59830;SDS011;45711;50.108;13.712;2022-07-23T04:19:21;16.23;;;11.00;;
59830;SDS011;45711;50.108;13.712;2022-07-23T04:21:47;14.68;;;10.88;;
59830;SDS011;45711;50.108;13.712;2022-07-23T04:24:12;24.00;;;11.38;;
59830;SDS011;45711;50.108;13.712;2022-07-23T04:26:38;17.48;;;10.65;;
59830;SDS011;45711;50.108;13.712;2022-07-23T04:29:03;16.80;;;11.48;;
59830;SDS011;45711;50.108;13.712;2022-07-23T04:31:30;20.88;;;10.85;;
59830;SDS011;45711;50.108;13.712;2022-07-23T04:33:56;20.77;;;11.32;;
59830;SDS011;45711;50.108;13.712;2022-07-23T04:36:21;17.60;;;11.15;;
59830;SDS011;45711;50.108;13.712;2022-07-23T04:38:47;18.35;;;11.70;;
59830;SDS011;45711;50.108;13.712;2022-07-23T04:41:12;26.08;;;11.60;;
59830;SDS011;45711;50.108;13.712;2022-07-23T04:43:38;18.17;;;11.57;;
59830;SDS011;45711;50.108;13.712;2022-07-23T04:46:03;16.92;;;11.00;;
59830;SDS011;45711;50.108;13.712;2022-07-23T04:48:30;24.95;;;12.60;;
59830;SDS011;45711;50.108;13.712;2022-07-23T04:50:57;22.48;;;11.65;;
59830;SDS011;45711;50.108;13.712;2022-07-23T04:53:22;18.23;;;12.40;;
59830;SDS011;45711;50.108;13.712;2022-07-23T04:55:48;18.38;;;12.23;;
59830;SDS011;45711;50.108;13.712;2022-07-23T04:58:13;18.38;;;12.35;;
59830;SDS011;45711;50.108;13.712;2022-07-23T05:00:39;22.58;;;12.40;;
59830;SDS011;45711;50.108;13.712;2022-07-23T05:03:04;20.40;;;13.18;;
59830;SDS011;45711;50.108;13.712;2022-07-23T05:05:31;21.30;;;12.65;;
59830;SDS011;45711;50.108;13.712;2022-07-23T05:07:57;19.50;;;13.25;;
59830;SDS011;45711;50.108;13.712;2022-07-23T05:10:22;28.75;;;12.90;;
59830;SDS011;45711;50.108;13.712;2022-07-23T05:12:48;23.02;;;12.88;;
59830;SDS011;45711;50.108;13.712;2022-07-23T05:15:13;21.42;;;13.38;;
59830;SDS011;45711;50.108;13.712;2022-07-23T05:17:39;17.08;;;12.32;;
59830;SDS011;45711;50.108;13.712;2022-07-23T05:20:05;18.90;;;12.75;;
59830;SDS011;45711;50.108;13.712;2022-07-23T05:22:32;20.35;;;11.23;;
59830;SDS011;45711;50.108;13.712;2022-07-23T05:24:58;16.33;;;11.88;;
59830;SDS011;45711;50.108;13.712;2022-07-23T05:27:23;16.70;;;11.13;;
59830;SDS011;45711;50.108;13.712;2022-07-23T05:29:49;15.95;;;11.30;;
59830;SDS011;45711;50.108;13.712;2022-07-23T05:32:15;12.73;;;10.65;;
59830;SDS011;45711;50.108;13.712;2022-07-23T05:34:40;16.63;;;11.52;;
59830;SDS011;45711;50.108;13.712;2022-07-23T05:37:06;15.63;;;11.55;;
59830;SDS011;45711;50.108;13.712;2022-07-23T05:39:32;17.83;;;10.93;;
59830;SDS011;45711;50.108;13.712;2022-07-23T05:41:58;17.88;;;11.35;;
59830;SDS011;45711;50.108;13.712;2022-07-23T05:44:23;21.70;;;11.65;;
59830;SDS011;45711;50.108;13.712;2022-07-23T05:46:49;16.33;;;11.07;;
59830;SDS011;45711;50.108;13.712;2022-07-23T05:49:15;17.05;;;12.00;;
59830;SDS011;45711;50.108;13.712;2022-07-23T05:51:40;20.45;;;11.77;;
59830;SDS011;45711;50.108;13.712;2022-07-23T05:54:06;15.80;;;11.77;;
59830;SDS011;45711;50.108;13.712;2022-07-23T05:56:32;21.17;;;12.40;;
59830;SDS011;45711;50.108;13.712;2022-07-23T05:58:58;14.65;;;12.57;;
59830;SDS011;45711;50.108;13.712;2022-07-23T06:01:24;21.20;;;12.60;;
59830;SDS011;45711;50.108;13.712;2022-07-23T06:03:49;18.70;;;12.43;;
59830;SDS011;45711;50.108;13.712;2022-07-23T06:06:15;16.33;;;12.35;;
59830;SDS011;45711;50.108;13.712;2022-07-23T06:08:40;20.60;;;12.93;;
59830;SDS011;45711;50.108;13.712;2022-07-23T06:11:06;25.95;;;13.88;;
59830;SDS011;45711;50.108;13.712;2022-07-23T06:13:33;20.58;;;13.32;;
59830;SDS011;45711;50.108;13.712;2022-07-23T06:15:58;20.60;;;13.45;;
59830;SDS011;45711;50.108;13.712;2022-07-23T06:18:24;17.67;;;13.27;;
59830;SDS011;45711;50.108;13.712;2022-07-23T06:20:50;16.55;;;12.30;;
59830;SDS011;45711;50.108;13.712;2022-07-23T06:23:15;20.95;;;13.32;;
59830;SDS011;45711;50.108;13.712;2022-07-23T06:25:41;20.50;;;13.57;;
59830;SDS011;45711;50.108;13.712;2022-07-23T06:28:06;17.15;;;12.75;;
59830;SDS011;45711;50.108;13.712;2022-07-23T06:30:33;20.95;;;13.45;;
59830;SDS011;45711;50.108;13.712;2022-07-23T06:32:59;23.15;;;13.43;;
59830;SDS011;45711;50.108;13.712;2022-07-23T06:35:24;20.95;;;13.20;;
59830;SDS011;45711;50.108;13.712;2022-07-23T06:37:50;23.67;;;15.77;;
59830;SDS011;45711;50.108;13.712;2022-07-23T06:40:15;28.25;;;14.85;;
59830;SDS011;45711;50.108;13.712;2022-07-23T06:42:41;26.55;;;15.30;;
59830;SDS011;45711;50.108;13.712;2022-07-23T06:45:07;19.88;;;14.52;;
59830;SDS011;45711;50.108;13.712;2022-07-23T06:47:34;21.58;;;15.82;;
59830;SDS011;45711;50.108;13.712;2022-07-23T06:49:59;27.45;;;16.15;;
59830;SDS011;45711;50.108;13.712;2022-07-23T06:52:25;24.50;;;15.93;;
59830;SDS011;45711;50.108;13.712;2022-07-23T06:54:51;28.23;;;15.60;;
59830;SDS011;45711;50.108;13.712;2022-07-23T06:57:16;23.13;;;14.43;;
59830;SDS011;45711;50.108;13.712;2022-07-23T06:59:42;25.73;;;13.65;;
59830;SDS011;45711;50.108;13.712;2022-07-23T07:02:08;17.08;;;11.88;;
59830;SDS011;45711;50.108;13.712;2022-07-23T07:04:35;19.38;;;12.80;;
59830;SDS011;45711;50.108;13.712;2022-07-23T07:07:01;25.02;;;12.35;;
59830;SDS011;45711;50.108;13.712;2022-07-23T07:09:27;17.20;;;11.40;;
59830;SDS011;45711;50.108;13.712;2022-07-23T07:11:52;18.92;;;12.07;;
59830;SDS011;45711;50.108;13.712;2022-07-23T07:14:18;18.98;;;10.70;;
59830;SDS011;45711;50.108;13.712;2022-07-23T07:16:43;19.67;;;11.27;;
59830;SDS011;45711;50.108;13.712;2022-07-23T07:19:09;15.75;;;10.52;;
59830;SDS011;45711;50.108;13.712;2022-07-23T07:21:36;14.20;;;9.68;;
59830;SDS011;45711;50.108;13.712;2022-07-23T07:24:01;15.45;;;9.75;;
59830;SDS011;45711;50.108;13.712;2022-07-23T07:26:27;12.73;;;8.88;;
59830;SDS011;45711;50.108;13.712;2022-07-23T07:28:53;14.98;;;8.55;;
59830;SDS011;45711;50.108;13.712;2022-07-23T07:31:18;14.20;;;8.48;;
59830;SDS011;45711;50.108;13.712;2022-07-23T07:33:44;20.65;;;8.68;;
59830;SDS011;45711;50.108;13.712;2022-07-23T07:36:09;15.65;;;8.27;;
59830;SDS011;45711;50.108;13.712;2022-07-23T07:38:36;13.80;;;8.75;;
59830;SDS011;45711;50.108;13.712;2022-07-23T07:41:02;12.90;;;7.93;;
59830;SDS011;45711;50.108;13.712;2022-07-23T07:43:28;11.70;;;7.03;;
59830;SDS011;45711;50.108;13.712;2022-07-23T07:45:53;9.45;;;7.72;;
59830;SDS011;45711;50.108;13.712;2022-07-23T07:48:19;12.45;;;7.90;;
59830;SDS011;45711;50.108;13.712;2022-07-23T07:50:44;11.50;;;7.32;;
59830;SDS011;45711;50.108;13.712;2022-07-23T07:53:10;10.20;;;7.18;;
59830;SDS011;45711;50.108;13.712;2022-07-23T07:55:37;12.90;;;7.78;;
59830;SDS011;45711;50.108;13.712;2022-07-23T07:58:03;7.32;;;6.28;;
59830;SDS011;45711;50.108;13.712;2022-07-23T08:00:28;12.43;;;6.95;;
59830;SDS011;45711;50.108;13.712;2022-07-23T08:02:54;12.82;;;7.72;;
59830;SDS011;45711;50.108;13.712;2022-07-23T08:05:20;9.30;;;6.35;;
59830;SDS011;45711;50.108;13.712;2022-07-23T08:07:47;14.00;;;7.15;;
59830;SDS011;45711;50.108;13.712;2022-07-23T08:10:12;10.18;;;7.53;;
59830;SDS011;45711;50.108;13.712;2022-07-23T08:12:40;13.10;;;7.60;;
59830;SDS011;45711;50.108;13.712;2022-07-23T08:15:07;10.23;;;6.68;;
59830;SDS011;45711;50.108;13.712;2022-07-23T08:17:34;13.52;;;7.00;;
59830;SDS011;45711;50.108;13.712;2022-07-23T08:20:00;9.57;;;7.10;;
59830;SDS011;45711;50.108;13.712;2022-07-23T08:22:25;13.05;;;7.32;;
59830;SDS011;45711;50.108;13.712;2022-07-23T08:25:06;10.30;;;7.05;;
59830;SDS011;45711;50.108;13.712;2022-07-23T08:27:32;9.00;;;6.13;;
59830;SDS011;45711;50.108;13.712;2022-07-23T08:29:59;8.95;;;6.78;;
59830;SDS011;45711;50.108;13.712;2022-07-23T08:32:25;12.48;;;7.07;;
59830;SDS011;45711;50.108;13.712;2022-07-23T08:34:50;7.82;;;6.55;;
59830;SDS011;45711;50.108;13.712;2022-07-23T08:37:16;13.52;;;6.93;;
59830;SDS011;45711;50.108;13.712;2022-07-23T08:39:41;13.18;;;6.40;;
59830;SDS011;45711;50.108;13.712;2022-07-23T08:42:07;13.63;;;6.53;;
59830;SDS011;45711;50.108;13.712;2022-07-23T08:44:33;11.35;;;6.40;;
59830;SDS011;45711;50.108;13.712;2022-07-23T08:47:01;8.30;;;6.13;;
59830;SDS011;45711;50.108;13.712;2022-07-23T08:49:30;7.57;;;6.32;;
59830;SDS011;45711;50.108;13.712;2022-07-23T08:51:56;8.65;;;6.22;;
59830;SDS011;45711;50.108;13.712;2022-07-23T08:54:22;9.95;;;5.80;;
59830;SDS011;45711;50.108;13.712;2022-07-23T08:56:47;8.45;;;6.03;;
59830;SDS011;45711;50.108;13.712;2022-07-23T08:59:13;9.55;;;5.93;;
59830;SDS011;45711;50.108;13.712;2022-07-23T09:01:39;7.90;;;5.65;;
59830;SDS011;45711;50.108;13.712;2022-07-23T09:04:06;10.68;;;5.95;;
59830;SDS011;45711;50.108;13.712;2022-07-23T09:06:31;11.77;;;6.10;;
59830;SDS011;45711;50.108;13.712;2022-07-23T09:08:57;9.25;;;5.95;;
59830;SDS011;45711;50.108;13.712;2022-07-23T09:11:23;8.48;;;5.82;;
59830;SDS011;45711;50.108;13.712;2022-07-23T09:13:49;7.15;;;5.90;;
59830;SDS011;45711;50.108;13.712;2022-07-23T09:16:17;6.93;;;5.38;;
59830;SDS011;45711;50.108;13.712;2022-07-23T09:18:45;6.70;;;5.22;;
59830;SDS011;45711;50.108;13.712;2022-07-23T09:21:20;11.10;;;5.75;;
59830;SDS011;45711;50.108;13.712;2022-07-23T09:23:49;8.18;;;5.65;;
59830;SDS011;45711;50.108;13.712;2022-07-23T09:26:18;8.90;;;5.82;;
59830;SDS011;45711;50.108;13.712;2022-07-23T09:28:49;11.75;;;6.30;;
59830;SDS011;45711;50.108;13.712;2022-07-23T09:31:17;8.82;;;5.63;;
59830;SDS011;45711;50.108;13.712;2022-07-23T09:33:43;7.30;;;5.22;;
59830;SDS011;45711;50.108;13.712;2022-07-23T09:36:09;8.85;;;5.30;;
59830;SDS011;45711;50.108;13.712;2022-07-23T09:38:36;7.38;;;5.55;;
59830;SDS011;45711;50.108;13.712;2022-07-23T09:41:13;6.78;;;5.50;;
59830;SDS011;45711;50.108;13.712;2022-07-23T09:43:39;8.57;;;6.05;;
59830;SDS011;45711;50.108;13.712;2022-07-23T09:46:21;6.93;;;5.18;;
59830;SDS011;45711;50.108;13.712;2022-07-23T09:48:49;7.93;;;5.43;;
59830;SDS011;45711;50.108;13.712;2022-07-23T09:51:16;6.22;;;5.38;;
59830;SDS011;45711;50.108;13.712;2022-07-23T09:54:03;8.82;;;5.60;;
59830;SDS011;45711;50.108;13.712;2022-07-23T09:56:35;9.57;;;4.85;;
59830;SDS011;45711;50.108;13.712;2022-07-23T09:59:13;10.93;;;5.75;;
59830;SDS011;45711;50.108;13.712;2022-07-23T10:01:43;6.82;;;5.35;;
59830;SDS011;45711;50.108;13.712;2022-07-23T10:04:09;6.97;;;4.90;;
59830;SDS011;45711;50.108;13.712;2022-07-23T10:06:36;5.88;;;4.90;;
59830;SDS011;45711;50.108;13.712;2022-07-23T10:09:05;7.57;;;5.63;;
59830;SDS011;45711;50.108;13.712;2022-07-23T10:11:32;9.32;;;5.30;;
59830;SDS011;45711;50.108;13.712;2022-07-23T10:13:59;9.68;;;5.53;;
59830;SDS011;45711;50.108;13.712;2022-07-23T10:16:29;8.77;;;5.05;;
59830;SDS011;45711;50.108;13.712;2022-07-23T10:18:54;9.38;;;5.53;;
59830;SDS011;45711;50.108;13.712;2022-07-23T10:21:21;8.45;;;4.88;;
59830;SDS011;45711;50.108;13.712;2022-07-23T10:23:58;10.27;;;5.60;;
59830;SDS011;45711;50.108;13.712;2022-07-23T10:26:38;21.55;;;5.40;;
59830;SDS011;45711;50.108;13.712;2022-07-23T10:29:14;6.70;;;5.03;;
59830;SDS011;45711;50.108;13.712;2022-07-23T10:31:50;6.68;;;5.35;;
59830;SDS011;45711;50.108;13.712;2022-07-23T10:34:25;10.88;;;5.35;;
59830;SDS011;45711;50.108;13.712;2022-07-23T10:36:57;7.25;;;5.00;;
59830;SDS011;45711;50.108;13.712;2022-07-23T10:39:31;6.30;;;5.38;;
59830;SDS011;45711;50.108;13.712;2022-07-23T10:42:08;9.38;;;5.35;;
59830;SDS011;45711;50.108;13.712;2022-07-23T10:44:40;7.72;;;5.53;;
59830;SDS011;45711;50.108;13.712;2022-07-23T10:47:11;6.53;;;5.07;;
59830;SDS011;45711;50.108;13.712;2022-07-23T10:49:40;6.95;;;5.10;;
59830;SDS011;45711;50.108;13.712;2022-07-23T10:52:15;6.75;;;4.97;;
59830;SDS011;45711;50.108;13.712;2022-07-23T10:54:43;12.55;;;5.40;;
59830;SDS011;45711;50.108;13.712;2022-07-23T10:57:11;10.07;;;5.97;;
59830;SDS011;45711;50.108;13.712;2022-07-23T11:02:56;10.40;;;5.40;;
59830;SDS011;45711;50.108;13.712;2022-07-23T11:05:24;9.05;;;5.85;;
59830;SDS011;45711;50.108;13.712;2022-07-23T11:08:13;7.47;;;5.47;;
59830;SDS011;45711;50.108;13.712;2022-07-23T11:10:46;6.75;;;4.90;;
59830;SDS011;45711;50.108;13.712;2022-07-23T11:13:26;7.50;;;5.53;;
59830;SDS011;45711;50.108;13.712;2022-07-23T11:16:06;9.20;;;5.63;;
59830;SDS011;45711;50.108;13.712;2022-07-23T11:21:44;15.45;;;5.13;;
59830;SDS011;45711;50.108;13.712;2022-07-23T11:24:15;17.08;;;5.13;;
59830;SDS011;45711;50.108;13.712;2022-07-23T11:26:58;6.78;;;4.85;;
59830;SDS011;45711;50.108;13.712;2022-07-23T11:29:43;7.63;;;5.05;;
59830;SDS011;45711;50.108;13.712;2022-07-23T11:32:18;14.35;;;4.90;;
59830;SDS011;45711;50.108;13.712;2022-07-23T11:34:54;8.68;;;5.00;;
59830;SDS011;45711;50.108;13.712;2022-07-23T11:37:27;6.32;;;4.93;;
59830;SDS011;45711;50.108;13.712;2022-07-23T11:39:56;10.90;;;4.78;;
59830;SDS011;45711;50.108;13.712;2022-07-23T11:42:22;6.00;;;4.57;;
59830;SDS011;45711;50.108;13.712;2022-07-23T11:44:50;9.88;;;4.75;;
59830;SDS011;45711;50.108;13.712;2022-07-23T11:47:20;23.48;;;5.63;;
59830;SDS011;45711;50.108;13.712;2022-07-23T11:49:51;13.25;;;5.53;;
59830;SDS011;45711;50.108;13.712;2022-07-23T11:52:17;23.20;;;7.68;;
59830;SDS011;45711;50.108;13.712;2022-07-23T11:54:49;18.58;;;7.47;;
59830;SDS011;45711;50.108;13.712;2022-07-23T11:59:42;11.68;;;6.45;;
59830;SDS011;45711;50.108;13.712;2022-07-23T12:02:12;16.77;;;7.40;;
59830;SDS011;45711;50.108;13.712;2022-07-23T12:04:37;19.70;;;7.18;;
59830;SDS011;45711;50.108;13.712;2022-07-23T12:07:23;15.98;;;6.97;;
59830;SDS011;45711;50.108;13.712;2022-07-23T12:09:53;13.82;;;6.55;;
59830;SDS011;45711;50.108;13.712;2022-07-23T12:12:20;11.65;;;6.60;;
59830;SDS011;45711;50.108;13.712;2022-07-23T12:14:49;13.43;;;6.65;;
59830;SDS011;45711;50.108;13.712;2022-07-23T12:17:17;12.15;;;6.80;;
59830;SDS011;45711;50.108;13.712;2022-07-23T12:19:44;11.23;;;6.47;;
59830;SDS011;45711;50.108;13.712;2022-07-23T12:22:10;13.15;;;6.35;;
59830;SDS011;45711;50.108;13.712;2022-07-23T12:27:20;34.67;;;6.20;;
59830;SDS011;45711;50.108;13.712;2022-07-23T12:29:47;8.48;;;6.25;;
59830;SDS011;45711;50.108;13.712;2022-07-23T12:32:18;9.70;;;6.25;;
59830;SDS011;45711;50.108;13.712;2022-07-23T12:34:45;7.13;;;5.72;;
59830;SDS011;45711;50.108;13.712;2022-07-23T12:37:28;11.07;;;6.63;;
59830;SDS011;45711;50.108;13.712;2022-07-23T12:40:03;12.68;;;6.10;;
59830;SDS011;45711;50.108;13.712;2022-07-23T12:42:47;10.50;;;6.30;;
59830;SDS011;45711;50.108;13.712;2022-07-23T12:45:18;7.68;;;5.72;;
59830;SDS011;45711;50.108;13.712;2022-07-23T12:47:52;9.38;;;5.63;;
59830;SDS011;45711;50.108;13.712;2022-07-23T12:50:33;6.20;;;5.00;;
59830;SDS011;45711;50.108;13.712;2022-07-23T12:53:06;8.02;;;4.82;;
59830;SDS011;45711;50.108;13.712;2022-07-23T12:55:33;7.30;;;4.93;;
59830;SDS011;45711;50.108;13.712;2022-07-23T12:58:07;5.45;;;4.75;;
59830;SDS011;45711;50.108;13.712;2022-07-23T13:03:35;5.35;;;4.32;;
59830;SDS011;45711;50.108;13.712;2022-07-23T13:08:31;5.65;;;4.30;;
59830;SDS011;45711;50.108;13.712;2022-07-23T13:11:01;8.70;;;4.80;;
59830;SDS011;45711;50.108;13.712;2022-07-23T13:13:30;6.80;;;4.72;;
59830;SDS011;45711;50.108;13.712;2022-07-23T13:16:01;6.82;;;4.85;;
59830;SDS011;45711;50.108;13.712;2022-07-23T13:18:27;9.27;;;4.60;;
59830;SDS011;45711;50.108;13.712;2022-07-23T13:20:55;9.55;;;4.50;;
59830;SDS011;45711;50.108;13.712;2022-07-23T13:23:22;6.88;;;4.50;;
59830;SDS011;45711;50.108;13.712;2022-07-23T13:25:48;11.15;;;4.60;;
59830;SDS011;45711;50.108;13.712;2022-07-23T13:28:14;7.18;;;4.53;;
59830;SDS011;45711;50.108;13.712;2022-07-23T13:30:41;9.57;;;4.47;;
59830;SDS011;45711;50.108;13.712;2022-07-23T13:33:08;8.52;;;4.18;;
59830;SDS011;45711;50.108;13.712;2022-07-23T13:35:34;12.95;;;4.53;;
59830;SDS011;45711;50.108;13.712;2022-07-23T13:38:03;4.82;;;3.97;;
59830;SDS011;45711;50.108;13.712;2022-07-23T13:40:29;5.28;;;4.40;;
59830;SDS011;45711;50.108;13.712;2022-07-23T13:42:54;7.88;;;4.55;;
59830;SDS011;45711;50.108;13.712;2022-07-23T13:45:20;8.82;;;4.15;;
59830;SDS011;45711;50.108;13.712;2022-07-23T13:47:46;5.38;;;4.30;;
59830;SDS011;45711;50.108;13.712;2022-07-23T13:50:13;8.20;;;4.22;;
59830;SDS011;45711;50.108;13.712;2022-07-23T13:52:41;5.45;;;4.43;;
59830;SDS011;45711;50.108;13.712;2022-07-23T13:55:08;6.85;;;3.80;;
59830;SDS011;45711;50.108;13.712;2022-07-23T13:57:34;5.03;;;4.40;;
59830;SDS011;45711;50.108;13.712;2022-07-23T13:59:59;7.05;;;4.55;;
59830;SDS011;45711;50.108;13.712;2022-07-23T14:02:25;5.47;;;4.10;;
59830;SDS011;45711;50.108;13.712;2022-07-23T14:04:54;5.53;;;4.03;;
59830;SDS011;45711;50.108;13.712;2022-07-23T14:07:19;6.13;;;4.22;;
59830;SDS011;45711;50.108;13.712;2022-07-23T14:09:45;4.72;;;4.20;;
59830;SDS011;45711;50.108;13.712;2022-07-23T14:12:13;9.50;;;4.07;;
59830;SDS011;45711;50.108;13.712;2022-07-23T14:14:38;8.77;;;4.50;;
59830;SDS011;45711;50.108;13.712;2022-07-23T14:17:04;6.72;;;4.03;;
59830;SDS011;45711;50.108;13.712;2022-07-23T14:19:30;5.28;;;4.30;;
59830;SDS011;45711;50.108;13.712;2022-07-23T14:22:01;5.32;;;4.30;;
59830;SDS011;45711;50.108;13.712;2022-07-23T14:24:27;6.55;;;4.50;;
59830;SDS011;45711;50.108;13.712;2022-07-23T14:26:53;6.88;;;3.90;;
59830;SDS011;45711;50.108;13.712;2022-07-23T14:29:20;5.20;;;4.30;;
59830;SDS011;45711;50.108;13.712;2022-07-23T14:31:45;5.78;;;4.20;;
59830;SDS011;45711;50.108;13.712;2022-07-23T14:34:11;5.88;;;3.90;;
59830;SDS011;45711;50.108;13.712;2022-07-23T14:36:36;6.00;;;3.70;;
59830;SDS011;45711;50.108;13.712;2022-07-23T14:39:03;6.45;;;4.22;;
59830;SDS011;45711;50.108;13.712;2022-07-23T14:41:28;5.57;;;4.45;;